sensor_id;sensor_type;location;lat;lon;timestamp;pressure;altitude;pressure_sealevel;temperature;humidity
20889;BME280;10604;51.976;7.594;2023-11-18T00:00:29;101654.56;;;18.43;35.70
20889;BME280;10604;51.976;7.594;2023-11-18T00:02:54;101656.19;;;18.47;35.60
20889;BME280;10604;51.976;7.594;2023-11-18T00:05:20;101667.56;;;18.69;35.71
20889;BME280;10604;51.976;7.594;2023-11-18T00:07:46;101663.22;;;18.48;35.88
20889;BME280;10604;51.976;7.594;2023-11-18T00:10:11;101664.97;;;18.49;35.57
20889;BME280;10604;51.976;7.594;2023-11-18T00:12:37;101673.91;;;18.48;35.68
20889;BME280;10604;51.976;7.594;2023-11-18T00:15:05;101667.56;;;18.69;35.52
20889;BME280;10604;51.976;7.594;2023-11-18T00:17:33;101665.13;;;18.46;35.80
20889;BME280;10604;51.976;7.594;2023-11-18T00:19:58;101667.13;;;18.40;35.85
20889;BME280;10604;51.976;7.594;2023-11-18T00:22:24;101662.22;;;18.50;35.85
20889;BME280;10604;51.976;7.594;2023-11-18T00:24:49;101659.72;;;18.47;35.73
20889;BME280;10604;51.976;7.594;2023-11-18T00:27:14;101653.78;;;18.40;35.64
20889;BME280;10604;51.976;7.594;2023-11-18T00:29:40;101655.31;;;18.46;35.41
20889;BME280;10604;51.976;7.594;2023-11-18T00:32:05;101651.53;;;18.50;35.79
20889;BME280;10604;51.976;7.594;2023-11-18T00:34:32;101651.69;;;18.28;36.04
20889;BME280;10604;51.976;7.594;2023-11-18T00:36:57;101651.97;;;18.22;36.07
20889;BME280;10604;51.976;7.594;2023-11-18T00:39:22;101649.41;;;18.39;35.90
20889;BME280;10604;51.976;7.594;2023-11-18T00:41:48;101649.09;;;18.27;35.76
20889;BME280;10604;51.976;7.594;2023-11-18T00:44:14;101645.06;;;18.18;35.88
20889;BME280;10604;51.976;7.594;2023-11-18T00:46:39;101649.53;;;18.18;36.08
20889;BME280;10604;51.976;7.594;2023-11-18T00:49:04;101659.50;;;18.14;35.81
20889;BME280;10604;51.976;7.594;2023-11-18T00:51:30;101656.59;;;18.00;36.04
20889;BME280;10604;51.976;7.594;2023-11-18T00:53:55;101653.44;;;18.11;35.82
20889;BME280;10604;51.976;7.594;2023-11-18T00:56:20;101652.28;;;18.16;35.94
20889;BME280;10604;51.976;7.594;2023-11-18T00:58:46;101648.81;;;17.95;36.03
20889;BME280;10604;51.976;7.594;2023-11-18T01:01:12;101652.56;;;18.10;35.76
20889;BME280;10604;51.976;7.594;2023-11-18T01:03:37;101652.09;;;17.82;35.73
20889;BME280;10604;51.976;7.594;2023-11-18T01:06:03;101653.28;;;17.95;36.31
20889;BME280;10604;51.976;7.594;2023-11-18T01:08:30;101650.84;;;18.09;35.71
20889;BME280;10604;51.976;7.594;2023-11-18T01:10:55;101649.50;;;17.99;35.47
20889;BME280;10604;51.976;7.594;2023-11-18T01:13:20;101648.75;;;17.97;35.69
20889;BME280;10604;51.976;7.594;2023-11-18T01:15:45;101650.88;;;17.89;35.51
20889;BME280;10604;51.976;7.594;2023-11-18T01:18:11;101651.81;;;17.88;35.22
20889;BME280;10604;51.976;7.594;2023-11-18T01:20:36;101649.91;;;17.71;35.52
20889;BME280;10604;51.976;7.594;2023-11-18T01:23:02;101657.09;;;17.69;35.87
20889;BME280;10604;51.976;7.594;2023-11-18T01:25:27;101654.84;;;17.80;35.68
20889;BME280;10604;51.976;7.594;2023-11-18T01:27:54;101658.13;;;17.67;35.50
20889;BME280;10604;51.976;7.594;2023-11-18T01:30:19;101663.84;;;17.57;35.80
20889;BME280;10604;51.976;7.594;2023-11-18T01:32:45;101667.69;;;17.50;35.55
20889;BME280;10604;51.976;7.594;2023-11-18T01:35:11;101663.44;;;17.46;35.57
20889;BME280;10604;51.976;7.594;2023-11-18T01:37:37;101663.50;;;17.45;35.57
20889;BME280;10604;51.976;7.594;2023-11-18T01:40:02;101669.84;;;17.42;35.75
20889;BME280;10604;51.976;7.594;2023-11-18T01:42:31;101673.53;;;17.40;35.81
20889;BME280;10604;51.976;7.594;2023-11-18T01:44:57;101677.97;;;17.39;35.63
20889;BME280;10604;51.976;7.594;2023-11-18T01:47:24;101683.97;;;17.44;35.22
20889;BME280;10604;51.976;7.594;2023-11-18T01:49:49;101677.88;;;17.41;35.37
20889;BME280;10604;51.976;7.594;2023-11-18T01:52:15;101683.44;;;17.36;35.65
20889;BME280;10604;51.976;7.594;2023-11-18T01:54:40;101667.84;;;17.47;35.44
20889;BME280;10604;51.976;7.594;2023-11-18T01:57:09;101675.16;;;17.22;35.57
20889;BME280;10604;51.976;7.594;2023-11-18T01:59:35;101674.34;;;17.20;35.24
20889;BME280;10604;51.976;7.594;2023-11-18T02:02:00;101673.69;;;17.15;35.59
20889;BME280;10604;51.976;7.594;2023-11-18T02:04:27;101672.69;;;17.17;35.71
20889;BME280;10604;51.976;7.594;2023-11-18T02:06:53;101675.44;;;17.36;35.56
20889;BME280;10604;51.976;7.594;2023-11-18T02:09:19;101672.22;;;17.28;35.22
20889;BME280;10604;51.976;7.594;2023-11-18T02:11:53;101666.22;;;17.23;35.24
20889;BME280;10604;51.976;7.594;2023-11-18T02:14:21;101664.91;;;17.53;34.73
20889;BME280;10604;51.976;7.594;2023-11-18T02:16:50;101669.00;;;17.20;35.08
20889;BME280;10604;51.976;7.594;2023-11-18T02:19:21;101669.34;;;17.12;35.36
20889;BME280;10604;51.976;7.594;2023-11-18T02:21:49;101666.06;;;17.06;35.12
20889;BME280;10604;51.976;7.594;2023-11-18T02:24:31;101658.50;;;17.17;35.29
20889;BME280;10604;51.976;7.594;2023-11-18T02:27:01;101655.59;;;17.01;35.36
20889;BME280;10604;51.976;7.594;2023-11-18T02:29:27;101657.91;;;17.31;35.32
20889;BME280;10604;51.976;7.594;2023-11-18T02:31:57;101660.25;;;17.18;35.14
20889;BME280;10604;51.976;7.594;2023-11-18T02:34:27;101663.94;;;17.14;35.13
20889;BME280;10604;51.976;7.594;2023-11-18T02:36:53;101675.22;;;17.20;35.17
20889;BME280;10604;51.976;7.594;2023-11-18T02:39:26;101673.84;;;17.32;35.24
20889;BME280;10604;51.976;7.594;2023-11-18T02:41:54;101666.88;;;17.08;35.09
20889;BME280;10604;51.976;7.594;2023-11-18T02:44:21;101663.34;;;17.28;34.87
20889;BME280;10604;51.976;7.594;2023-11-18T02:46:48;101660.97;;;17.21;35.24
20889;BME280;10604;51.976;7.594;2023-11-18T02:49:13;101670.06;;;16.96;35.69
20889;BME280;10604;51.976;7.594;2023-11-18T02:51:39;101658.00;;;17.07;35.03
20889;BME280;10604;51.976;7.594;2023-11-18T02:54:05;101668.06;;;17.01;35.46
20889;BME280;10604;51.976;7.594;2023-11-18T02:56:31;101654.91;;;17.18;35.30
20889;BME280;10604;51.976;7.594;2023-11-18T02:58:56;101653.81;;;17.02;35.62
20889;BME280;10604;51.976;7.594;2023-11-18T03:01:22;101647.69;;;17.20;35.28
20889;BME280;10604;51.976;7.594;2023-11-18T03:03:50;101646.22;;;17.13;34.98
20889;BME280;10604;51.976;7.594;2023-11-18T03:06:15;101645.00;;;17.00;35.75
20889;BME280;10604;51.976;7.594;2023-11-18T03:08:40;101651.16;;;17.02;35.66
20889;BME280;10604;51.976;7.594;2023-11-18T03:11:06;101650.47;;;16.97;35.34
20889;BME280;10604;51.976;7.594;2023-11-18T03:13:34;101647.13;;;16.92;35.64
20889;BME280;10604;51.976;7.594;2023-11-18T03:15:59;101651.09;;;16.81;35.82
20889;BME280;10604;51.976;7.594;2023-11-18T03:18:25;101641.25;;;16.83;35.48
20889;BME280;10604;51.976;7.594;2023-11-18T03:20:50;101641.94;;;16.89;35.75
20889;BME280;10604;51.976;7.594;2023-11-18T03:23:16;101641.28;;;17.04;35.59
20889;BME280;10604;51.976;7.594;2023-11-18T03:25:41;101630.47;;;17.07;35.38
20889;BME280;10604;51.976;7.594;2023-11-18T03:28:07;101631.28;;;17.09;35.47
20889;BME280;10604;51.976;7.594;2023-11-18T03:30:32;101627.56;;;17.33;35.08
20889;BME280;10604;51.976;7.594;2023-11-18T03:32:57;101632.50;;;17.22;35.22
20889;BME280;10604;51.976;7.594;2023-11-18T03:35:23;101622.75;;;17.21;35.04
20889;BME280;10604;51.976;7.594;2023-11-18T03:37:49;101622.47;;;17.07;35.27
20889;BME280;10604;51.976;7.594;2023-11-18T03:40:14;101620.97;;;16.79;35.55
20889;BME280;10604;51.976;7.594;2023-11-18T03:42:40;101614.06;;;16.75;35.42
20889;BME280;10604;51.976;7.594;2023-11-18T03:45:06;101619.25;;;16.78;35.78
20889;BME280;10604;51.976;7.594;2023-11-18T03:47:31;101624.22;;;16.66;35.35
20889;BME280;10604;51.976;7.594;2023-11-18T03:49:58;101616.19;;;16.67;35.47
20889;BME280;10604;51.976;7.594;2023-11-18T03:52:24;101619.75;;;16.66;35.23
20889;BME280;10604;51.976;7.594;2023-11-18T03:54:49;101623.69;;;16.56;35.74
20889;BME280;10604;51.976;7.594;2023-11-18T03:57:14;101623.16;;;16.48;35.69
20889;BME280;10604;51.976;7.594;2023-11-18T03:59:40;101628.69;;;16.65;35.73
20889;BME280;10604;51.976;7.594;2023-11-18T04:02:06;101633.25;;;16.40;35.56
20889;BME280;10604;51.976;7.594;2023-11-18T04:04:31;101640.06;;;16.47;35.65
20889;BME280;10604;51.976;7.594;2023-11-18T04:06:56;101631.34;;;16.42;35.76
20889;BME280;10604;51.976;7.594;2023-11-18T04:09:22;101640.44;;;16.60;35.25
20889;BME280;10604;51.976;7.594;2023-11-18T04:11:47;101643.06;;;16.38;35.67
20889;BME280;10604;51.976;7.594;2023-11-18T04:14:12;101644.34;;;16.28;35.71
20889;BME280;10604;51.976;7.594;2023-11-18T04:16:37;101634.00;;;16.20;35.95
20889;BME280;10604;51.976;7.594;2023-11-18T04:19:03;101621.78;;;16.38;35.69
20889;BME280;10604;51.976;7.594;2023-11-18T04:21:28;101610.44;;;16.33;35.79
20889;BME280;10604;51.976;7.594;2023-11-18T04:23:53;101618.28;;;16.36;35.08
20889;BME280;10604;51.976;7.594;2023-11-18T04:26:20;101618.19;;;16.39;35.31
20889;BME280;10604;51.976;7.594;2023-11-18T04:28:45;101607.94;;;16.28;35.64
20889;BME280;10604;51.976;7.594;2023-11-18T04:31:10;101613.94;;;16.12;35.70
20889;BME280;10604;51.976;7.594;2023-11-18T04:33:36;101613.44;;;16.02;36.14
20889;BME280;10604;51.976;7.594;2023-11-18T04:36:01;101600.88;;;16.05;35.87
20889;BME280;10604;51.976;7.594;2023-11-18T04:38:27;101605.16;;;15.86;36.22
20889;BME280;10604;51.976;7.594;2023-11-18T04:40:53;101603.22;;;15.91;36.33
20889;BME280;10604;51.976;7.594;2023-11-18T04:43:20;101596.06;;;15.92;36.34
20889;BME280;10604;51.976;7.594;2023-11-18T04:45:46;101590.75;;;15.92;36.09
20889;BME280;10604;51.976;7.594;2023-11-18T04:48:11;101592.19;;;16.00;36.17
20889;BME280;10604;51.976;7.594;2023-11-18T04:50:38;101594.56;;;16.08;35.93
20889;BME280;10604;51.976;7.594;2023-11-18T04:53:04;101583.94;;;16.30;35.50
20889;BME280;10604;51.976;7.594;2023-11-18T04:55:29;101573.25;;;16.08;35.73
20889;BME280;10604;51.976;7.594;2023-11-18T04:57:54;101576.22;;;16.00;35.72
20889;BME280;10604;51.976;7.594;2023-11-18T05:00:20;101576.13;;;16.03;35.87
20889;BME280;10604;51.976;7.594;2023-11-18T05:02:46;101574.13;;;16.09;36.02
20889;BME280;10604;51.976;7.594;2023-11-18T05:05:15;101585.75;;;15.84;35.89
20889;BME280;10604;51.976;7.594;2023-11-18T05:07:40;101578.78;;;15.80;36.33
20889;BME280;10604;51.976;7.594;2023-11-18T05:10:06;101574.41;;;15.56;36.64
20889;BME280;10604;51.976;7.594;2023-11-18T05:12:33;101572.63;;;16.01;36.13
20889;BME280;10604;51.976;7.594;2023-11-18T05:14:58;101564.50;;;15.83;36.30
20889;BME280;10604;51.976;7.594;2023-11-18T05:17:23;101561.88;;;16.04;36.58
20889;BME280;10604;51.976;7.594;2023-11-18T05:19:49;101566.28;;;16.05;36.74
20889;BME280;10604;51.976;7.594;2023-11-18T05:22:14;101563.63;;;16.05;36.74
20889;BME280;10604;51.976;7.594;2023-11-18T05:24:39;101550.38;;;16.26;36.07
20889;BME280;10604;51.976;7.594;2023-11-18T05:27:05;101548.69;;;16.01;36.98
20889;BME280;10604;51.976;7.594;2023-11-18T05:29:30;101528.22;;;16.03;36.77
20889;BME280;10604;51.976;7.594;2023-11-18T05:31:55;101525.41;;;16.06;36.88
20889;BME280;10604;51.976;7.594;2023-11-18T05:34:21;101530.94;;;16.24;36.36
20889;BME280;10604;51.976;7.594;2023-11-18T05:36:46;101533.25;;;15.88;37.15
20889;BME280;10604;51.976;7.594;2023-11-18T05:39:13;101528.56;;;15.94;36.72
20889;BME280;10604;51.976;7.594;2023-11-18T05:41:40;101520.00;;;15.86;36.63
20889;BME280;10604;51.976;7.594;2023-11-18T05:44:06;101523.97;;;15.76;37.15
20889;BME280;10604;51.976;7.594;2023-11-18T05:46:33;101517.28;;;15.66;37.10
20889;BME280;10604;51.976;7.594;2023-11-18T05:49:01;101523.97;;;15.76;37.21
20889;BME280;10604;51.976;7.594;2023-11-18T05:51:27;101530.03;;;15.80;37.42
20889;BME280;10604;51.976;7.594;2023-11-18T05:53:53;101524.53;;;16.06;36.92
20889;BME280;10604;51.976;7.594;2023-11-18T05:56:20;101517.94;;;15.94;37.29
20889;BME280;10604;51.976;7.594;2023-11-18T05:58:47;101526.31;;;16.49;36.55
20889;BME280;10604;51.976;7.594;2023-11-18T06:01:12;101533.53;;;16.25;36.91
20889;BME280;10604;51.976;7.594;2023-11-18T06:03:38;101530.94;;;16.24;37.16
20889;BME280;10604;51.976;7.594;2023-11-18T06:06:07;101527.03;;;16.11;37.15
20889;BME280;10604;51.976;7.594;2023-11-18T06:08:36;101543.13;;;16.08;37.33
20889;BME280;10604;51.976;7.594;2023-11-18T06:11:06;101552.16;;;16.03;37.58
20889;BME280;10604;51.976;7.594;2023-11-18T06:13:38;101540.34;;;16.11;37.34
20889;BME280;10604;51.976;7.594;2023-11-18T06:16:07;101539.66;;;16.05;37.58
20889;BME280;10604;51.976;7.594;2023-11-18T06:18:32;101529.81;;;16.08;37.54
20889;BME280;10604;51.976;7.594;2023-11-18T06:20:58;101524.97;;;15.95;37.90
20889;BME280;10604;51.976;7.594;2023-11-18T06:23:23;101526.28;;;16.07;37.60
20889;BME280;10604;51.976;7.594;2023-11-18T06:25:48;101525.06;;;16.16;37.57
20889;BME280;10604;51.976;7.594;2023-11-18T06:28:13;101527.59;;;16.19;37.37
20889;BME280;10604;51.976;7.594;2023-11-18T06:30:40;101521.66;;;16.12;37.65
20889;BME280;10604;51.976;7.594;2023-11-18T06:33:06;101527.97;;;16.10;37.42
20889;BME280;10604;51.976;7.594;2023-11-18T06:35:31;101531.28;;;16.15;37.48
20889;BME280;10604;51.976;7.594;2023-11-18T06:37:59;101526.72;;;15.96;37.90
20889;BME280;10604;51.976;7.594;2023-11-18T06:40:24;101521.41;;;16.18;37.60
20889;BME280;10604;51.976;7.594;2023-11-18T06:42:52;101511.94;;;16.11;37.53
20889;BME280;10604;51.976;7.594;2023-11-18T06:45:19;101507.63;;;16.29;37.39
20889;BME280;10604;51.976;7.594;2023-11-18T06:47:47;101511.47;;;16.22;37.47
20889;BME280;10604;51.976;7.594;2023-11-18T06:50:14;101515.06;;;16.21;37.47
20889;BME280;10604;51.976;7.594;2023-11-18T06:52:40;101520.16;;;16.27;37.49
20889;BME280;10604;51.976;7.594;2023-11-18T06:55:10;101508.56;;;16.28;37.42
20889;BME280;10604;51.976;7.594;2023-11-18T06:57:36;101511.13;;;16.31;37.29
20889;BME280;10604;51.976;7.594;2023-11-18T07:00:01;101516.44;;;16.31;37.23
20889;BME280;10604;51.976;7.594;2023-11-18T07:02:33;101508.56;;;16.28;37.72
20889;BME280;10604;51.976;7.594;2023-11-18T07:04:58;101504.41;;;16.42;37.38
20889;BME280;10604;51.976;7.594;2023-11-18T07:07:23;101505.41;;;16.62;37.11
20889;BME280;10604;51.976;7.594;2023-11-18T07:09:49;101514.91;;;16.25;37.65
20889;BME280;10604;51.976;7.594;2023-11-18T07:12:14;101519.06;;;16.11;37.73
20889;BME280;10604;51.976;7.594;2023-11-18T07:14:40;101517.31;;;16.10;38.01
20889;BME280;10604;51.976;7.594;2023-11-18T07:17:05;101523.31;;;16.15;37.99
20889;BME280;10604;51.976;7.594;2023-11-18T07:19:30;101517.41;;;16.28;37.73
20889;BME280;10604;51.976;7.594;2023-11-18T07:21:58;101512.34;;;16.44;37.81
20889;BME280;10604;51.976;7.594;2023-11-18T07:24:24;101508.38;;;16.54;37.79
20889;BME280;10604;51.976;7.594;2023-11-18T07:26:49;101520.59;;;16.38;37.97
20889;BME280;10604;51.976;7.594;2023-11-18T07:29:15;101515.78;;;16.26;38.07
20889;BME280;10604;51.976;7.594;2023-11-18T07:31:42;101521.81;;;16.29;38.08
20889;BME280;10604;51.976;7.594;2023-11-18T07:34:08;101539.72;;;16.26;38.29
20889;BME280;10604;51.976;7.594;2023-11-18T07:36:33;101533.53;;;16.47;37.77
20889;BME280;10604;51.976;7.594;2023-11-18T07:38:59;101530.91;;;16.67;38.02
20889;BME280;10604;51.976;7.594;2023-11-18T07:41:27;101520.63;;;16.58;38.25
20889;BME280;10604;51.976;7.594;2023-11-18T07:43:55;101509.47;;;16.70;37.96
20889;BME280;10604;51.976;7.594;2023-11-18T07:46:24;101508.94;;;16.82;37.75
20889;BME280;10604;51.976;7.594;2023-11-18T07:48:49;101493.22;;;16.97;37.67
20889;BME280;10604;51.976;7.594;2023-11-18T07:51:16;101492.06;;;17.02;37.89
20889;BME280;10604;51.976;7.594;2023-11-18T07:53:42;101498.03;;;16.89;37.63
20889;BME280;10604;51.976;7.594;2023-11-18T07:56:07;101487.34;;;17.09;37.76
20889;BME280;10604;51.976;7.594;2023-11-18T07:58:36;101486.00;;;17.19;37.26
20889;BME280;10604;51.976;7.594;2023-11-18T08:01:02;101490.00;;;17.09;37.83
20889;BME280;10604;51.976;7.594;2023-11-18T08:03:29;101503.84;;;17.17;37.76
20889;BME280;10604;51.976;7.594;2023-11-18T08:05:56;101494.75;;;17.21;37.59
20889;BME280;10604;51.976;7.594;2023-11-18T08:08:21;101497.09;;;17.29;37.73
20889;BME280;10604;51.976;7.594;2023-11-18T08:10:47;101505.31;;;17.24;37.60
20889;BME280;10604;51.976;7.594;2023-11-18T08:13:13;101503.56;;;17.23;37.64
20889;BME280;10604;51.976;7.594;2023-11-18T08:15:38;101509.72;;;17.25;37.79
20889;BME280;10604;51.976;7.594;2023-11-18T08:18:10;101508.06;;;17.41;37.82
20889;BME280;10604;51.976;7.594;2023-11-18T08:20:35;101509.09;;;17.57;37.85
20889;BME280;10604;51.976;7.594;2023-11-18T08:23:01;101515.91;;;17.65;37.68
20889;BME280;10604;51.976;7.594;2023-11-18T08:25:26;101523.41;;;17.55;37.87
20889;BME280;10604;51.976;7.594;2023-11-18T08:27:51;101516.06;;;17.62;37.93
20889;BME280;10604;51.976;7.594;2023-11-18T08:30:17;101514.16;;;17.64;37.76
20889;BME280;10604;51.976;7.594;2023-11-18T08:32:43;101512.38;;;17.83;38.07
20889;BME280;10604;51.976;7.594;2023-11-18T08:35:09;101506.78;;;18.06;37.74
20889;BME280;10604;51.976;7.594;2023-11-18T08:37:35;101509.59;;;18.03;37.54
20889;BME280;10604;51.976;7.594;2023-11-18T08:40:02;101504.28;;;18.03;37.99
20889;BME280;10604;51.976;7.594;2023-11-18T08:42:27;101505.41;;;18.16;37.95
20889;BME280;10604;51.976;7.594;2023-11-18T08:44:54;101507.38;;;18.30;37.72
20889;BME280;10604;51.976;7.594;2023-11-18T08:47:20;101501.47;;;18.59;37.22
20889;BME280;10604;51.976;7.594;2023-11-18T08:49:46;101502.47;;;18.57;37.16
20889;BME280;10604;51.976;7.594;2023-11-18T08:52:11;101497.13;;;18.57;37.47
20889;BME280;10604;51.976;7.594;2023-11-18T08:54:38;101496.63;;;18.49;37.65
20889;BME280;10604;51.976;7.594;2023-11-18T08:57:03;101492.53;;;18.42;37.41
20889;BME280;10604;51.976;7.594;2023-11-18T08:59:29;101489.25;;;18.54;37.44
20889;BME280;10604;51.976;7.594;2023-11-18T09:01:55;101480.56;;;18.67;37.69
20889;BME280;10604;51.976;7.594;2023-11-18T09:04:21;101481.06;;;18.91;37.32
20889;BME280;10604;51.976;7.594;2023-11-18T09:06:47;101478.25;;;18.77;37.52
20889;BME280;10604;51.976;7.594;2023-11-18T09:09:13;101481.41;;;18.85;37.42
20889;BME280;10604;51.976;7.594;2023-11-18T09:11:40;101465.81;;;18.93;37.52
20889;BME280;10604;51.976;7.594;2023-11-18T09:14:07;101470.97;;;19.13;37.11
20889;BME280;10604;51.976;7.594;2023-11-18T09:16:33;101465.13;;;19.23;36.81
20889;BME280;10604;51.976;7.594;2023-11-18T09:19:04;101455.47;;;19.36;37.13
20889;BME280;10604;51.976;7.594;2023-11-18T09:21:31;101455.53;;;19.51;36.52
20889;BME280;10604;51.976;7.594;2023-11-18T09:24:00;101455.31;;;19.39;36.73
20889;BME280;10604;51.976;7.594;2023-11-18T09:26:27;101455.13;;;19.42;36.75
20889;BME280;10604;51.976;7.594;2023-11-18T09:28:55;101439.28;;;19.39;36.88
20889;BME280;10604;51.976;7.594;2023-11-18T09:31:20;101419.25;;;19.46;36.99
20889;BME280;10604;51.976;7.594;2023-11-18T09:33:46;101414.75;;;19.31;37.34
20889;BME280;10604;51.976;7.594;2023-11-18T09:36:17;101412.38;;;19.73;36.84
20889;BME280;10604;51.976;7.594;2023-11-18T09:38:43;101414.09;;;19.59;37.05
20889;BME280;10604;51.976;7.594;2023-11-18T09:41:11;101403.91;;;19.65;37.07
20889;BME280;10604;51.976;7.594;2023-11-18T09:43:37;101399.56;;;19.78;37.30
20889;BME280;10604;51.976;7.594;2023-11-18T09:46:30;101402.09;;;19.81;37.17
20889;BME280;10604;51.976;7.594;2023-11-18T09:49:04;101399.22;;;19.69;37.65
20889;BME280;10604;51.976;7.594;2023-11-18T09:51:39;101413.03;;;19.77;37.34
20889;BME280;10604;51.976;7.594;2023-11-18T09:54:12;101404.34;;;19.73;37.61
20889;BME280;10604;51.976;7.594;2023-11-18T09:59:47;101395.44;;;19.73;37.79
20889;BME280;10604;51.976;7.594;2023-11-18T10:02:09;101399.78;;;19.89;37.75
20889;BME280;10604;51.976;7.594;2023-11-18T10:04:36;101400.94;;;19.85;37.78
20889;BME280;10604;51.976;7.594;2023-11-18T10:07:02;101403.16;;;20.09;37.81
20889;BME280;10604;51.976;7.594;2023-11-18T10:09:29;101407.53;;;19.64;38.21
20889;BME280;10604;51.976;7.594;2023-11-18T10:12:02;101406.31;;;19.70;38.35
20889;BME280;10604;51.976;7.594;2023-11-18T10:14:31;101399.47;;;19.96;38.21
20889;BME280;10604;51.976;7.594;2023-11-18T10:16:56;101404.41;;;19.87;38.65
20889;BME280;10604;51.976;7.594;2023-11-18T10:19:22;101392.69;;;19.74;38.46
20889;BME280;10604;51.976;7.594;2023-11-18T10:21:50;101386.00;;;20.11;37.84
20889;BME280;10604;51.976;7.594;2023-11-18T10:24:16;101383.06;;;20.16;38.03
20889;BME280;10604;51.976;7.594;2023-11-18T10:26:45;101376.84;;;20.15;38.21
20889;BME280;10604;51.976;7.594;2023-11-18T10:29:10;101374.25;;;20.14;38.08
20889;BME280;10604;51.976;7.594;2023-11-18T10:31:38;101376.66;;;20.18;38.47
20889;BME280;10604;51.976;7.594;2023-11-18T10:34:10;101373.13;;;20.32;38.31
20889;BME280;10604;51.976;7.594;2023-11-18T10:36:36;101373.47;;;20.12;38.18
20889;BME280;10604;51.976;7.594;2023-11-18T10:39:01;101368.44;;;20.51;37.45
20889;BME280;10604;51.976;7.594;2023-11-18T10:41:29;101359.44;;;20.38;38.02
20889;BME280;10604;51.976;7.594;2023-11-18T10:44:28;101363.38;;;20.17;38.43
20889;BME280;10604;51.976;7.594;2023-11-18T10:46:52;101360.38;;;20.37;38.21
20889;BME280;10604;51.976;7.594;2023-11-18T10:49:18;101354.38;;;20.32;38.40
20889;BME280;10604;51.976;7.594;2023-11-18T10:51:43;101350.25;;;20.56;38.33
20889;BME280;10604;51.976;7.594;2023-11-18T10:54:12;101343.63;;;20.62;37.76
20889;BME280;10604;51.976;7.594;2023-11-18T10:56:45;101330.69;;;20.54;37.95
20889;BME280;10604;51.976;7.594;2023-11-18T10:59:11;101326.69;;;20.61;37.71
20889;BME280;10604;51.976;7.594;2023-11-18T11:01:41;101308.50;;;20.38;38.06
20889;BME280;10604;51.976;7.594;2023-11-18T11:04:13;101303.31;;;20.63;37.95
20889;BME280;10604;51.976;7.594;2023-11-18T11:06:42;101292.91;;;20.45;38.16
20889;BME280;10604;51.976;7.594;2023-11-18T11:09:08;101288.28;;;20.61;38.11
20889;BME280;10604;51.976;7.594;2023-11-18T11:11:47;101286.00;;;20.69;38.29
20889;BME280;10604;51.976;7.594;2023-11-18T11:14:14;101276.81;;;20.73;38.10
20889;BME280;10604;51.976;7.594;2023-11-18T11:16:42;101265.97;;;20.89;37.96
20889;BME280;10604;51.976;7.594;2023-11-18T11:19:20;101262.94;;;20.52;38.23
20889;BME280;10604;51.976;7.594;2023-11-18T11:21:52;101257.34;;;20.84;38.13
20889;BME280;10604;51.976;7.594;2023-11-18T11:24:23;101279.59;;;20.43;38.41
20889;BME280;10604;51.976;7.594;2023-11-18T11:29:51;101292.22;;;20.69;38.46
20889;BME280;10604;51.976;7.594;2023-11-18T11:32:25;101290.97;;;20.75;38.38
20889;BME280;10604;51.976;7.594;2023-11-18T11:34:54;101285.53;;;20.34;38.76
20889;BME280;10604;51.976;7.594;2023-11-18T11:37:22;101274.78;;;20.62;38.42
20889;BME280;10604;51.976;7.594;2023-11-18T11:39:49;101270.00;;;20.82;38.56
20889;BME280;10604;51.976;7.594;2023-11-18T11:42:18;101268.41;;;21.06;38.21
20889;BME280;10604;51.976;7.594;2023-11-18T11:44:45;101252.09;;;21.23;37.66
20889;BME280;10604;51.976;7.594;2023-11-18T11:47:12;101257.06;;;21.15;38.06
20889;BME280;10604;51.976;7.594;2023-11-18T11:49:45;101265.41;;;21.10;38.09
20889;BME280;10604;51.976;7.594;2023-11-18T11:52:19;101258.66;;;21.32;37.74
20889;BME280;10604;51.976;7.594;2023-11-18T11:57:51;101254.00;;;21.21;37.81
20889;BME280;10604;51.976;7.594;2023-11-18T12:00:22;101251.13;;;21.24;38.06
20889;BME280;10604;51.976;7.594;2023-11-18T12:02:51;101264.44;;;21.26;37.98
20889;BME280;10604;51.976;7.594;2023-11-18T12:05:20;101253.97;;;21.35;37.68
20889;BME280;10604;51.976;7.594;2023-11-18T12:07:54;101252.66;;;21.28;37.79
20889;BME280;10604;51.976;7.594;2023-11-18T12:10:20;101256.38;;;21.53;37.25
20889;BME280;10604;51.976;7.594;2023-11-18T12:12:46;101242.81;;;21.41;37.65
20889;BME280;10604;51.976;7.594;2023-11-18T12:15:12;101238.50;;;21.39;37.61
20889;BME280;10604;51.976;7.594;2023-11-18T12:23:05;101226.16;;;21.09;37.94
20889;BME280;10604;51.976;7.594;2023-11-18T12:25:39;101217.78;;;21.14;38.20
20889;BME280;10604;51.976;7.594;2023-11-18T12:28:37;101205.22;;;20.88;38.54
20889;BME280;10604;51.976;7.594;2023-11-18T12:30:59;101206.19;;;21.40;37.63
20889;BME280;10604;51.976;7.594;2023-11-18T12:41:40;101172.13;;;21.28;38.03
20889;BME280;10604;51.976;7.594;2023-11-18T12:49:23;101163.81;;;21.45;37.69
20889;BME280;10604;51.976;7.594;2023-11-18T12:51:52;101154.53;;;21.37;38.09
20889;BME280;10604;51.976;7.594;2023-11-18T12:54:25;101145.34;;;21.14;38.41
20889;BME280;10604;51.976;7.594;2023-11-18T12:56:52;101144.38;;;21.15;38.07
20889;BME280;10604;51.976;7.594;2023-11-18T12:59:19;101143.59;;;21.13;38.79
20889;BME280;10604;51.976;7.594;2023-11-18T13:01:52;101149.69;;;21.29;38.40
20889;BME280;10604;51.976;7.594;2023-11-18T13:04:24;101154.94;;;21.04;38.69
20889;BME280;10604;51.976;7.594;2023-11-18T13:06:49;101141.88;;;21.12;38.65
20889;BME280;10604;51.976;7.594;2023-11-18T13:09:16;101140.47;;;21.06;38.67
20889;BME280;10604;51.976;7.594;2023-11-18T13:11:51;101133.66;;;21.15;38.70
20889;BME280;10604;51.976;7.594;2023-11-18T13:14:17;101131.44;;;21.22;38.66
20889;BME280;10604;51.976;7.594;2023-11-18T13:16:42;101124.25;;;21.22;38.65